PWSweather.com
Personal Weather Stations
Station Observations
PIOMBINO2
PiombinoIT

PiombinoIT

Lat: 42.9358, Lon: 10.5231

Elevation: 124

Station Type: Davis Vantage Pro 2

http://piombinometeo.it

Latest ConditionsUpdated 9:00:02 AM GMT+01:01 Thursday, Dec 12, 2019
Currently Today's Max Today's Min Today's Average
Temperature 52.9°F11.6°C 53.2°F11.8°C 46.8°F8.2°C 50.0°F10.0°C
Dew Point 44.8°F7.1°C 47.0°F8.3°C 37.6°F3.1°C 43.6°F6.4°C
Winds 12.0 mph W19.3 kmh W 13.0 mph -20.9 kmh - - 6.5 mph 10.5 kmh
Wind Gusts 25.0 mph40.2 kmh 31.0 mph49.9 kmh - -
Humidity 74% 84% 69% 79%
Pressure 29.60 in1002.4 mb 29.73 in1006.8 mb 29.59 in1002.0 mb -
Precipitation - 0.15 in3.8 mm - -
Hour Temp Dew Point Humidity Winds Wind Gusts Pressure Precip Precip Rate Daily Precip Total
09:00 AM 52.9°F11.6°C 44.8°F7.1°C 74% 12.0 mph W19.3 kmh W 25.0 mph40.2 kmh 29.60 in1002.4 mb 0.01 in0.3 mm 0.00 in0.0 mm 0.15 in3.8 mm
08:45 AM 52.5°F11.4°C 44.8°F7.1°C 75% 13.0 mph W20.9 kmh W 31.0 mph49.9 kmh 29.60 in1002.4 mb 0.01 in0.3 mm 0.04 in1.0 mm 0.15 in3.8 mm
08:30 AM 53.2°F11.8°C 45.9°F7.7°C 76% 11.0 mph WSW17.7 kmh WSW 27.0 mph43.5 kmh 29.60 in1002.4 mb 0.00 in0.0 mm 0.00 in0.0 mm 0.14 in3.6 mm
08:15 AM 53.1°F11.7°C 46.7°F8.2°C 79% 10.0 mph W16.1 kmh W 24.0 mph38.6 kmh 29.60 in1002.4 mb 0.00 in0.0 mm 0.00 in0.0 mm 0.14 in3.6 mm
08:00 AM 53.1°F11.7°C 46.7°F8.2°C 79% 11.0 mph W17.7 kmh W 23.0 mph37.0 kmh 29.59 in1002.0 mb 0.02 in0.5 mm 0.00 in0.0 mm 0.14 in3.6 mm
07:45 AM 52.9°F11.6°C 46.9°F8.3°C 80% 11.0 mph W17.7 kmh W 21.0 mph33.8 kmh 29.59 in1002.0 mb 0.07 in1.8 mm 0.00 in0.0 mm 0.14 in3.6 mm
07:30 AM 52.7°F11.5°C 47.0°F8.3°C 81% 10.0 mph W16.1 kmh W 23.0 mph37.0 kmh 29.59 in1002.0 mb 0.08 in2.0 mm 0.00 in0.0 mm 0.14 in3.6 mm
07:15 AM 51.4°F10.8°C 45.5°F7.5°C 80% 7.0 mph SW11.3 kmh SW 17.0 mph27.4 kmh 29.59 in1002.0 mb 0.08 in2.0 mm 0.08 in2.0 mm 0.14 in3.6 mm
07:00 AM 51.4°F10.8°C 44.8°F7.1°C 78% 8.0 mph SW12.9 kmh SW 12.0 mph19.3 kmh 29.60 in1002.4 mb 0.06 in1.5 mm 0.05 in1.3 mm 0.11 in2.8 mm
06:45 AM 52.3°F11.3°C 44.6°F7.0°C 75% 12.0 mph WSW19.3 kmh WSW 26.0 mph41.8 kmh 29.60 in1002.4 mb 0.02 in0.5 mm 0.04 in1.0 mm 0.07 in1.8 mm
06:30 AM 52.9°F11.6°C 44.5°F6.9°C 73% 7.0 mph SSW11.3 kmh SSW 23.0 mph37.0 kmh 29.59 in1002.0 mb 0.01 in0.3 mm 0.00 in0.0 mm 0.06 in1.5 mm
06:15 AM 50.4°F10.2°C 45.1°F7.3°C 82% 4.0 mph SSW6.4 kmh SSW 21.0 mph33.8 kmh 29.59 in1002.0 mb 0.01 in0.3 mm 0.04 in1.0 mm 0.06 in1.5 mm
06:00 AM 47.8°F8.8°C 43.2°F6.2°C 84% 3.0 mph NNE4.8 kmh NNE 4.0 mph6.4 kmh 29.60 in1002.4 mb 0.00 in0.0 mm 0.00 in0.0 mm 0.06 in1.5 mm
05:45 AM 47.3°F8.5°C 42.4°F5.8°C 83% 6.0 mph NE9.7 kmh NE 11.0 mph17.7 kmh 29.60 in1002.4 mb 0.00 in0.0 mm 0.00 in0.0 mm 0.06 in1.5 mm
05:30 AM 46.8°F8.2°C 41.9°F5.5°C 83% 5.0 mph NE8.0 kmh NE 13.0 mph20.9 kmh 29.61 in1002.7 mb 0.00 in0.0 mm 0.00 in0.0 mm 0.06 in1.5 mm
05:15 AM 46.9°F8.3°C 41.7°F5.4°C 82% 2.0 mph NNE3.2 kmh NNE 5.0 mph8.0 kmh 29.61 in1002.7 mb 0.00 in0.0 mm 0.00 in0.0 mm 0.06 in1.5 mm
05:00 AM 47.8°F8.8°C 42.6°F5.9°C 82% 3.0 mph NNE4.8 kmh NNE 7.0 mph11.3 kmh 29.62 in1003.0 mb 0.00 in0.0 mm 0.00 in0.0 mm 0.06 in1.5 mm
04:45 AM 48.7°F9.3°C 44.1°F6.7°C 84% 3.0 mph NE4.8 kmh NE 7.0 mph11.3 kmh 29.62 in1003.0 mb 0.00 in0.0 mm 0.00 in0.0 mm 0.06 in1.5 mm
04:30 AM 47.7°F8.7°C 42.4°F5.8°C 82% 4.0 mph N6.4 kmh N 8.0 mph12.9 kmh 29.61 in1002.7 mb 0.00 in0.0 mm 0.00 in0.0 mm 0.06 in1.5 mm
04:15 AM 47.5°F8.6°C 41.9°F5.5°C 81% 6.0 mph NNE9.7 kmh NNE 11.0 mph17.7 kmh 29.62 in1003.0 mb 0.01 in0.3 mm 0.00 in0.0 mm 0.06 in1.5 mm
04:00 AM 47.3°F8.5°C 41.8°F5.4°C 81% 4.0 mph NE6.4 kmh NE 12.0 mph19.3 kmh 29.63 in1003.4 mb 0.03 in0.8 mm 0.00 in0.0 mm 0.06 in1.5 mm
03:45 AM 47.7°F8.7°C 42.1°F5.6°C 81% 4.0 mph NE6.4 kmh NE 9.0 mph14.5 kmh 29.64 in1003.7 mb 0.05 in1.3 mm 0.00 in0.0 mm 0.06 in1.5 mm
03:30 AM 49.3°F9.6°C 43.7°F6.5°C 81% 4.0 mph ENE6.4 kmh ENE 8.0 mph12.9 kmh 29.65 in1004.1 mb 0.06 in1.5 mm 0.04 in1.0 mm 0.06 in1.5 mm
03:15 AM 49.8°F9.9°C 43.6°F6.4°C 79% 6.0 mph SE9.7 kmh SE 14.0 mph22.5 kmh 29.66 in1004.4 mb 0.05 in1.3 mm 0.12 in3.0 mm 0.05 in1.3 mm
03:00 AM 50.7°F10.4°C 43.4°F6.3°C 76% 6.0 mph SE9.7 kmh SE 14.0 mph22.5 kmh 29.66 in1004.4 mb 0.02 in0.5 mm 0.08 in2.0 mm 0.02 in0.5 mm
12:15 AM 47.3°F8.5°C 37.6°F3.1°C 69% 2.0 mph NE3.2 kmh NE 5.0 mph8.0 kmh 29.72 in1006.4 mb 0.00 in0.0 mm 0.00 in0.0 mm 0.00 in0.0 mm
12:00 AM 47.5°F8.6°C 38.2°F3.4°C 70% 2.0 mph NE3.2 kmh NE 4.0 mph6.4 kmh 29.73 in1006.8 mb 0.00 in0.0 mm 0.00 in0.0 mm 0.00 in0.0 mm